createdAt,value
2023-01-21T01:19:06.790Z,31.48
2023-01-21T01:21:34.474Z,29.92
2023-01-21T01:24:03.153Z,29.88
2023-01-21T01:26:30.369Z,34.42
2023-01-21T01:28:57.419Z,23.85
2023-01-21T01:31:24.664Z,31.00
2023-01-21T01:33:51.854Z,29.88
2023-01-21T01:36:20.556Z,24.80
2023-01-21T01:38:51.451Z,32.42
2023-01-21T01:41:43.423Z,28.88
2023-01-21T01:44:36.883Z,33.35
2023-01-21T01:47:05.301Z,31.48
2023-01-21T01:49:32.415Z,32.65
2023-01-21T01:52:03.575Z,32.17
2023-01-21T01:54:32.843Z,31.88
2023-01-21T01:57:02.096Z,32.08
2023-01-21T01:59:29.978Z,34.67
2023-01-21T02:01:58.129Z,32.58
2023-01-21T02:04:27.927Z,31.17
2023-01-21T02:06:56.078Z,30.95
2023-01-21T02:09:25.163Z,30.77
2023-01-21T02:11:52.279Z,30.42
2023-01-21T02:14:19.443Z,29.50
2023-01-21T02:16:59.620Z,31.25
2023-01-21T02:19:44.742Z,30.27
2023-01-21T02:22:18.033Z,29.73
2023-01-21T02:24:48.227Z,24.52
2023-01-21T02:27:33.509Z,24.17
2023-01-21T02:30:00.561Z,26.77
2023-01-21T02:32:33.735Z,27.23
2023-01-21T02:35:05.783Z,24.08
2023-01-21T02:37:51.719Z,22.73
2023-01-21T02:40:22.151Z,24.30
2023-01-21T02:42:51.790Z,26.60
2023-01-21T02:45:34.237Z,28.23
2023-01-21T02:48:06.640Z,25.60
2023-01-21T02:50:39.163Z,28.85
2023-01-21T02:53:06.440Z,27.73
2023-01-21T02:55:36.803Z,24.85
2023-01-21T02:58:10.133Z,27.95
2023-01-21T03:00:53.472Z,24.92
2023-01-21T03:03:29.711Z,21.13
2023-01-21T03:05:59.672Z,21.48
2023-01-21T03:08:41.897Z,27.63
2023-01-21T03:11:19.839Z,25.45
2023-01-21T03:14:14.134Z,24.58
2023-01-21T03:16:59.145Z,23.90
2023-01-21T03:19:52.677Z,22.45
2023-01-21T03:22:22.940Z,25.38
2023-01-21T03:24:51.846Z,27.38
2023-01-21T03:27:20.318Z,25.42
2023-01-21T03:29:48.544Z,25.45
2023-01-21T03:32:17.225Z,24.90
2023-01-21T03:34:46.408Z,28.80
2023-01-21T03:37:19.942Z,24.35
2023-01-21T03:40:05.757Z,27.35
2023-01-21T03:42:33.071Z,26.00
2023-01-21T03:45:00.527Z,27.42
2023-01-21T03:47:35.382Z,24.58
2023-01-21T03:50:11.346Z,23.70
2023-01-21T03:52:42.282Z,25.02
2023-01-21T03:55:10.486Z,26.10
2023-01-21T03:57:37.661Z,22.02
2023-01-21T04:00:05.965Z,24.42
2023-01-21T04:02:33.269Z,25.70
2023-01-21T04:05:00.428Z,23.70
2023-01-21T04:07:27.631Z,24.50
2023-01-21T04:09:54.803Z,21.00
2023-01-21T04:12:22.041Z,22.38
2023-01-21T04:14:49.201Z,23.27
2023-01-21T04:17:16.357Z,23.88
2023-01-21T04:19:43.500Z,23.25
2023-01-21T04:22:10.716Z,19.98
2023-01-21T04:24:37.855Z,22.85
2023-01-21T04:27:04.976Z,22.05
2023-01-21T04:29:32.139Z,20.77
2023-01-21T04:31:59.243Z,22.52
2023-01-21T04:34:26.395Z,21.80
2023-01-21T04:36:53.549Z,21.90
2023-01-21T04:39:20.603Z,24.17
2023-01-21T04:41:47.668Z,21.58
2023-01-21T04:44:14.886Z,22.50
2023-01-21T04:46:41.981Z,22.23
2023-01-21T04:49:09.098Z,19.88
2023-01-21T04:51:36.259Z,24.88
2023-01-21T04:54:03.407Z,23.98
2023-01-21T04:56:30.515Z,21.73
2023-01-21T04:58:57.677Z,24.10
2023-01-21T05:01:24.810Z,16.33
2023-01-21T05:03:52.182Z,19.88
2023-01-21T05:06:19.347Z,21.95
2023-01-21T05:08:46.447Z,20.73
2023-01-21T05:11:16.075Z,22.48
2023-01-21T05:13:43.233Z,19.77
2023-01-21T05:16:10.416Z,21.77
2023-01-21T05:18:38.068Z,18.33
2023-01-21T05:21:05.639Z,21.75
2023-01-21T05:23:32.794Z,21.85
2023-01-21T05:25:59.899Z,16.38
2023-01-21T05:28:27.082Z,20.65
2023-01-21T05:30:54.300Z,21.48
2023-01-21T05:33:26.183Z,20.45
2023-01-21T05:35:53.483Z,22.30
2023-01-21T05:38:20.618Z,21.60
2023-01-21T05:40:47.706Z,21.80
2023-01-21T05:43:14.855Z,17.88
2023-01-21T05:45:41.939Z,20.13
2023-01-21T05:48:09.025Z,21.77
2023-01-21T05:50:36.297Z,18.77
2023-01-21T05:53:03.587Z,21.17
2023-01-21T05:55:30.668Z,20.77
2023-01-21T05:57:57.831Z,16.90
2023-01-21T06:00:25.004Z,19.95
2023-01-21T06:02:52.118Z,16.52
2023-01-21T06:05:19.317Z,21.08
2023-01-21T06:07:46.435Z,21.83
2023-01-21T06:10:13.541Z,20.58
2023-01-21T06:12:40.699Z,20.70
2023-01-21T06:15:08.032Z,19.70
2023-01-21T06:17:35.141Z,20.77
2023-01-21T06:20:02.404Z,18.23
2023-01-21T06:22:29.515Z,22.77
2023-01-21T06:24:56.609Z,21.73
2023-01-21T06:27:23.845Z,23.45
2023-01-21T06:29:50.939Z,23.33
2023-01-21T06:32:18.013Z,21.70
2023-01-21T06:34:46.667Z,21.67
2023-01-21T06:37:13.898Z,21.92
2023-01-21T06:39:41.343Z,22.95
2023-01-21T06:42:08.487Z,20.73
2023-01-21T06:44:35.551Z,17.02
2023-01-21T06:47:02.769Z,20.63
2023-01-21T06:49:29.993Z,21.55
2023-01-21T06:51:57.126Z,21.90
2023-01-21T06:54:24.188Z,18.00
2023-01-21T06:56:51.408Z,17.58
2023-01-21T06:59:18.539Z,20.77
2023-01-21T07:01:45.650Z,21.75
2023-01-21T07:04:12.928Z,21.90
2023-01-21T07:06:40.583Z,18.95
2023-01-21T07:09:08.654Z,21.45
2023-01-21T07:11:35.985Z,18.80
2023-01-21T07:14:03.640Z,20.70
2023-01-21T07:16:30.790Z,20.35
2023-01-21T07:18:57.981Z,19.92
2023-01-21T07:21:25.368Z,21.50
2023-01-21T07:23:53.070Z,19.48
2023-01-21T07:26:20.509Z,15.63
2023-01-21T07:28:47.595Z,18.95
2023-01-21T07:31:15.085Z,21.95
2023-01-21T07:33:42.319Z,19.45
2023-01-21T07:36:09.475Z,21.95
2023-01-21T07:38:36.540Z,22.42
2023-01-21T07:41:04.010Z,20.63
2023-01-21T07:43:31.131Z,20.52
2023-01-21T07:46:00.253Z,19.40
2023-01-21T07:48:27.679Z,21.85
2023-01-21T07:50:57.540Z,18.45
2023-01-21T07:53:24.704Z,18.55
2023-01-21T07:55:51.867Z,20.85
2023-01-21T07:58:18.980Z,21.13
2023-01-21T08:00:46.050Z,19.38
2023-01-21T08:03:13.236Z,16.92
2023-01-21T08:05:40.402Z,20.58
2023-01-21T08:08:07.487Z,21.80
2023-01-21T08:10:34.649Z,21.88
2023-01-21T08:13:02.028Z,21.48
2023-01-21T08:15:29.173Z,22.45
2023-01-21T08:17:56.846Z,22.55
2023-01-21T08:20:24.102Z,18.80
2023-01-21T08:22:51.457Z,23.05
2023-01-21T08:25:19.227Z,22.83
2023-01-21T08:27:46.450Z,23.60
2023-01-21T08:30:13.748Z,22.25
2023-01-21T08:32:40.926Z,23.75
2023-01-21T08:35:08.428Z,23.33
2023-01-21T08:37:35.505Z,23.75
2023-01-21T08:40:03.060Z,22.23
2023-01-21T08:42:30.168Z,23.05
2023-01-21T08:44:57.233Z,24.65
2023-01-21T08:47:24.401Z,22.42
2023-01-21T08:49:51.514Z,24.00
2023-01-21T08:52:20.633Z,23.73
2023-01-21T08:54:49.741Z,22.25
2023-01-21T08:57:17.855Z,22.77
2023-01-21T08:59:44.943Z,23.15
2023-01-21T09:02:12.280Z,21.60
2023-01-21T09:04:39.402Z,18.88
2023-01-21T09:07:06.718Z,22.08
2023-01-21T09:09:34.012Z,22.27
2023-01-21T09:12:01.140Z,21.38
2023-01-21T09:14:29.045Z,21.80
2023-01-21T09:16:56.350Z,17.60
2023-01-21T09:19:23.984Z,21.90
2023-01-21T09:21:52.472Z,19.77
2023-01-21T09:24:20.368Z,19.45
2023-01-21T09:26:47.451Z,20.98
2023-01-21T09:29:14.644Z,23.70
2023-01-21T09:31:41.866Z,20.40
2023-01-21T09:34:10.783Z,22.48
2023-01-21T09:36:37.988Z,21.95
2023-01-21T09:39:05.889Z,20.90
2023-01-21T09:41:46.103Z,22.40
2023-01-21T09:44:49.134Z,22.55
2023-01-21T09:47:24.586Z,18.75
2023-01-21T09:49:53.876Z,23.02
2023-01-21T09:52:31.171Z,23.60
2023-01-21T09:54:58.876Z,24.27
2023-01-21T09:57:31.828Z,24.70
2023-01-21T10:00:17.265Z,22.55
2023-01-21T10:02:44.555Z,20.67
2023-01-21T10:05:18.385Z,25.10
2023-01-21T10:07:49.500Z,25.05
2023-01-21T10:10:25.283Z,24.75
2023-01-21T10:12:58.673Z,25.13
2023-01-21T10:15:48.961Z,24.75
2023-01-21T10:18:19.362Z,23.33
2023-01-21T10:20:50.805Z,25.65
2023-01-21T10:25:47.528Z,23.92
2023-01-21T10:28:20.866Z,25.48
2023-01-21T10:30:50.809Z,24.90
2023-01-21T10:33:19.848Z,25.35
2023-01-21T10:35:58.580Z,26.33
2023-01-21T10:38:28.737Z,25.85
2023-01-21T10:40:58.673Z,27.10
2023-01-21T10:43:25.750Z,24.80
2023-01-21T10:45:55.925Z,27.90
2023-01-21T10:48:29.509Z,27.85
2023-01-21T10:50:56.611Z,24.80
2023-01-21T10:53:42.446Z,25.55
2023-01-21T10:56:15.774Z,25.98
2023-01-21T10:58:51.439Z,26.85
2023-01-21T11:01:22.055Z,24.23
2023-01-21T11:03:51.707Z,27.42
2023-01-21T11:06:20.110Z,26.35
2023-01-21T11:08:49.427Z,24.80
2023-01-21T11:11:19.420Z,24.38
2023-01-21T11:13:46.491Z,22.73
2023-01-21T11:16:13.662Z,22.85
2023-01-21T11:18:42.299Z,19.95
2023-01-21T11:21:17.229Z,21.55
2023-01-21T11:23:52.836Z,23.13
2023-01-21T11:26:21.960Z,26.90
2023-01-21T11:28:49.089Z,25.40
2023-01-21T11:31:26.550Z,24.88
2023-01-21T11:33:54.013Z,24.23
2023-01-21T11:36:21.819Z,25.25
2023-01-21T11:38:59.753Z,27.58
2023-01-21T11:41:26.898Z,24.80
2023-01-21T11:43:55.244Z,26.65
2023-01-21T11:46:28.858Z,25.70
2023-01-21T11:49:18.711Z,27.60
2023-01-21T11:51:46.777Z,27.75
2023-01-21T11:54:13.920Z,31.40
2023-01-21T11:56:43.324Z,33.78
2023-01-21T11:59:33.939Z,35.38
2023-01-21T12:02:11.587Z,34.05
2023-01-21T12:04:43.347Z,35.67
2023-01-21T12:07:18.376Z,35.85
2023-01-21T12:09:49.278Z,34.53
2023-01-21T12:12:27.634Z,35.03
2023-01-21T12:14:55.962Z,32.95
2023-01-21T12:17:31.142Z,31.10
2023-01-21T12:20:11.633Z,29.40
2023-01-21T12:22:46.993Z,28.03
2023-01-21T12:25:20.295Z,28.35
2023-01-21T12:28:02.507Z,28.23
2023-01-21T12:30:47.691Z,28.33
2023-01-21T12:33:22.226Z,27.92
2023-01-21T12:35:53.419Z,24.83
2023-01-21T12:38:22.705Z,26.63
2023-01-21T12:41:02.084Z,24.65
2023-01-21T12:43:41.944Z,31.15
2023-01-21T12:46:25.143Z,28.40
2023-01-21T12:48:54.572Z,33.20
2023-01-21T12:51:27.685Z,26.15
2023-01-21T12:54:06.744Z,29.27
2023-01-21T12:56:40.506Z,28.15
2023-01-21T12:59:26.146Z,28.15
2023-01-21T13:02:06.112Z,33.00
2023-01-21T13:04:52.201Z,30.45
2023-01-21T13:07:27.120Z,23.35
2023-01-21T13:09:58.621Z,25.55
2023-01-21T13:12:29.728Z,30.65
2023-01-21T13:15:15.859Z,26.70
2023-01-21T13:17:44.355Z,24.58
2023-01-21T13:20:16.060Z,25.83
2023-01-21T13:22:48.885Z,21.02
2023-01-21T13:25:19.124Z,26.00
2023-01-21T13:27:46.207Z,20.80
2023-01-21T13:30:28.749Z,26.30
2023-01-21T13:33:12.247Z,26.38
2023-01-21T13:35:57.143Z,27.40
2023-01-21T13:38:24.208Z,26.08
2023-01-21T13:40:55.266Z,26.50
2023-01-21T13:43:30.477Z,30.20
2023-01-21T13:46:20.779Z,24.63
2023-01-21T13:49:06.236Z,24.35
2023-01-21T13:51:42.266Z,25.88
2023-01-21T13:54:34.248Z,26.67
2023-01-21T13:57:20.172Z,26.92
2023-01-21T13:59:53.101Z,26.20
2023-01-21T14:02:37.789Z,22.20
2023-01-21T14:05:12.247Z,18.85
2023-01-21T14:08:02.728Z,19.50
2023-01-21T14:10:32.907Z,23.63
2023-01-21T14:13:02.823Z,23.92
2023-01-21T14:15:36.531Z,25.23
2023-01-21T14:18:06.688Z,25.58
2023-01-21T14:20:38.621Z,21.45
2023-01-21T14:23:27.780Z,24.02
2023-01-21T14:26:13.486Z,26.73
2023-01-21T14:28:47.845Z,25.55
2023-01-21T14:31:17.836Z,23.02
2023-01-21T14:33:49.130Z,24.85
2023-01-21T14:36:27.066Z,26.35
2023-01-21T14:38:59.943Z,25.95
2023-01-21T14:41:47.068Z,25.98
2023-01-21T14:44:32.896Z,25.98
2023-01-21T14:47:19.015Z,25.23
2023-01-21T14:49:47.596Z,25.63
2023-01-21T14:52:22.205Z,26.55
2023-01-21T14:54:49.559Z,23.65
2023-01-21T14:57:19.634Z,20.60
2023-01-21T14:59:47.061Z,26.95
2023-01-21T15:02:27.890Z,22.35
2023-01-21T15:04:56.788Z,21.80
2023-01-21T15:07:25.728Z,25.05
2023-01-21T15:09:54.715Z,24.52
2023-01-21T15:12:24.139Z,24.98
2023-01-21T15:14:51.347Z,22.77
2023-01-21T15:17:37.298Z,24.38
2023-01-21T15:20:24.388Z,24.65
2023-01-21T15:23:04.146Z,22.13
2023-01-21T15:25:31.786Z,23.20
2023-01-21T15:28:17.639Z,24.73
2023-01-21T15:30:58.892Z,24.55
2023-01-21T15:33:26.313Z,24.45
2023-01-21T15:35:54.398Z,24.90
2023-01-21T15:38:21.538Z,27.48
2023-01-21T15:40:55.859Z,25.77
2023-01-21T15:43:41.793Z,25.65
2023-01-21T15:46:27.963Z,25.52
2023-01-21T15:48:55.136Z,25.65
2023-01-21T15:51:32.163Z,28.25
2023-01-21T15:54:15.177Z,28.45
2023-01-21T15:56:42.777Z,29.45
2023-01-21T15:59:19.866Z,27.77
2023-01-21T16:01:49.630Z,28.17
2023-01-21T16:04:16.697Z,27.17
2023-01-21T16:07:02.703Z,28.40
2023-01-21T16:09:43.484Z,25.58
2023-01-21T19:04:22.738Z,20.08
2023-01-21T19:06:55.534Z,22.10
2023-01-21T19:09:26.056Z,21.00
2023-01-21T19:11:53.220Z,21.13
2023-01-21T19:14:20.325Z,22.10
2023-01-21T19:16:47.656Z,22.83
2023-01-21T19:19:16.063Z,22.88
2023-01-21T19:21:43.281Z,21.35
2023-01-21T19:24:12.265Z,22.13
2023-01-21T19:26:39.801Z,21.05
2023-01-21T19:29:08.387Z,21.92
2023-01-21T19:31:35.659Z,19.98
2023-01-21T19:34:02.795Z,20.95
2023-01-21T19:36:29.899Z,20.65
2023-01-21T19:38:58.519Z,20.80
2023-01-21T19:41:25.969Z,21.05
2023-01-21T19:43:53.042Z,20.67
2023-01-21T19:46:20.336Z,19.98
2023-01-21T19:48:50.321Z,22.08
2023-01-21T19:51:17.628Z,22.02
2023-01-21T19:53:44.794Z,20.55
2023-01-21T19:56:17.119Z,21.83
2023-01-21T19:58:44.299Z,22.20
2023-01-21T20:01:11.700Z,21.83
2023-01-21T20:03:41.594Z,23.10
2023-01-21T20:06:12.722Z,22.17
2023-01-21T20:08:39.863Z,21.63
2023-01-21T20:11:06.988Z,20.77
2023-01-21T20:13:36.798Z,21.10
2023-01-21T20:16:08.045Z,23.13
2023-01-21T20:21:02.303Z,23.05
2023-01-21T20:23:32.479Z,23.05
2023-01-21T20:26:00.000Z,21.95
2023-01-21T20:28:28.475Z,22.58
2023-01-21T20:30:55.989Z,23.95
2023-01-21T20:33:26.469Z,24.33
2023-01-21T20:35:54.790Z,21.48
2023-01-21T20:38:27.508Z,24.90
2023-01-21T20:40:54.623Z,23.00
2023-01-21T20:43:21.779Z,24.60
2023-01-21T20:45:49.939Z,24.40
2023-01-21T20:48:25.004Z,23.10
2023-01-21T20:50:52.530Z,25.17
2023-01-21T20:53:19.766Z,25.77
2023-01-21T20:55:47.935Z,22.52
2023-01-21T20:58:15.676Z,25.45
2023-01-21T21:00:43.822Z,25.70
2023-01-21T21:03:11.333Z,24.00
